Abbottstown, Pennsylvania
Current Conditions -  °F | °C
As of 11:53 AM on Thursday 18 Dec 2014 (Local Time) from KTHV Reporting Station
Overcast Overcast  
Wind Chill: 28°   Ceiling: 3900
Heat Index: 36°   Visibility: 10mi
Dew Point: 22°   Wind: 10mph
Humidity: 57%   Direction: 280°W
Pressure: 30.11"   Gusts: NA
Location:  39.89°N, 76.98°W
Report Text: KTHV 181653Z AUTO 28009KT 10SM OVC039 02/M06 A3011 RMK AO2 SLP201 T00221056
Loading
Personal Weather Stations






























Interactive Weather Map New forecast layout! Learn more

10-Day Weather Forecast

Advertisements
Track Severe Weather on mobile